createdAt,value
2022-11-26T00:01:40.699Z,4.91
2022-11-26T00:04:07.376Z,4.86
2022-11-26T00:06:36.895Z,4.69
2022-11-26T00:09:12.129Z,4.54
2022-11-26T00:11:40.234Z,4.52
2022-11-26T00:14:17.083Z,4.51
2022-11-26T00:16:45.110Z,4.49
2022-11-26T00:19:11.794Z,4.55
2022-11-26T00:21:40.623Z,4.56
2022-11-26T00:24:25.560Z,4.67
2022-11-26T00:26:52.343Z,4.59
2022-11-26T00:29:18.946Z,4.62
2022-11-26T00:31:45.704Z,4.69
2022-11-26T00:34:12.296Z,4.61
2022-11-26T00:36:39.191Z,4.58
2022-11-26T00:39:09.849Z,4.60
2022-11-26T00:41:38.831Z,4.49
2022-11-26T00:44:17.525Z,4.36
2022-11-26T00:46:44.344Z,4.47
2022-11-26T00:49:10.934Z,4.54
2022-11-26T00:51:38.367Z,4.46
2022-11-26T00:54:06.344Z,4.37
2022-11-26T00:56:37.731Z,4.36
2022-11-26T00:59:05.114Z,4.35
2022-11-26T01:01:32.840Z,4.24
2022-11-26T01:03:59.786Z,4.23
2022-11-26T01:06:31.373Z,4.33
2022-11-26T01:08:58.491Z,4.29
2022-11-26T01:11:25.148Z,4.25
2022-11-26T01:13:54.204Z,4.18
2022-11-26T01:16:27.347Z,4.11
2022-11-26T01:18:57.926Z,4.16
2022-11-26T01:21:26.780Z,4.24
2022-11-26T01:23:53.889Z,4.28
2022-11-26T01:26:34.556Z,4.26
2022-11-26T01:29:01.276Z,4.13
2022-11-26T01:31:29.365Z,4.09
2022-11-26T01:33:56.809Z,4.11
2022-11-26T01:36:31.050Z,4.21
2022-11-26T01:39:05.258Z,4.26
2022-11-26T01:42:07.972Z,4.30
2022-11-26T01:44:37.262Z,4.23
2022-11-26T01:47:22.991Z,4.14
2022-11-26T01:50:27.339Z,4.22
2022-11-26T01:52:56.819Z,3.99
2022-11-26T01:55:23.868Z,4.07
2022-11-26T01:57:51.274Z,3.94
2022-11-26T02:00:18.081Z,3.97
2022-11-26T02:02:45.628Z,3.98
2022-11-26T02:05:21.183Z,3.92
2022-11-26T02:07:48.138Z,4.04
2022-11-26T02:10:15.027Z,3.92
2022-11-26T02:12:42.765Z,3.85
2022-11-26T02:15:10.791Z,3.79
2022-11-26T02:17:54.519Z,3.83
2022-11-26T02:20:42.727Z,3.87
2022-11-26T02:23:09.402Z,3.94
2022-11-26T02:26:05.818Z,3.83
2022-11-26T02:28:52.330Z,3.83
2022-11-26T02:31:27.939Z,3.76
2022-11-26T02:34:00.981Z,3.72
2022-11-26T02:36:52.477Z,3.67
2022-11-26T02:39:24.295Z,3.62
2022-11-26T02:41:57.148Z,3.56
2022-11-26T02:44:28.535Z,3.62
2022-11-26T02:47:03.893Z,3.64
2022-11-26T02:49:32.101Z,3.58
2022-11-26T02:52:02.202Z,3.50
2022-11-26T02:54:30.291Z,3.51
2022-11-26T02:57:03.856Z,3.52
2022-11-26T02:59:31.347Z,3.52
2022-11-26T03:02:05.121Z,3.61
2022-11-26T03:04:38.492Z,3.65
2022-11-26T03:07:07.279Z,3.57
2022-11-26T03:10:06.394Z,3.64
2022-11-26T03:12:33.206Z,3.62
2022-11-26T03:14:59.818Z,3.54
2022-11-26T03:17:26.509Z,3.60
2022-11-26T03:19:53.086Z,3.55
2022-11-26T03:22:19.765Z,3.46
2022-11-26T03:24:46.388Z,3.58
2022-11-26T03:27:13.174Z,3.49
2022-11-26T03:29:39.784Z,3.44
2022-11-26T03:32:07.117Z,3.51
2022-11-26T03:34:33.848Z,3.39
2022-11-26T03:37:00.558Z,3.47
2022-11-26T03:39:27.155Z,3.50
2022-11-26T03:41:53.960Z,3.47
2022-11-26T03:44:20.686Z,3.42
2022-11-26T03:46:47.347Z,3.23
2022-11-26T03:49:13.932Z,3.10
2022-11-26T03:51:40.651Z,3.17
2022-11-26T03:54:07.296Z,3.31
2022-11-26T03:56:34.006Z,3.42
2022-11-26T03:59:00.706Z,3.26
2022-11-26T04:01:27.485Z,3.40
2022-11-26T04:03:54.250Z,3.45
2022-11-26T04:06:21.175Z,3.40
2022-11-26T04:08:47.838Z,3.43
2022-11-26T04:11:14.591Z,3.35
2022-11-26T04:13:41.184Z,3.34
2022-11-26T04:16:08.261Z,3.45
2022-11-26T04:18:34.984Z,3.51
2022-11-26T04:21:01.688Z,3.49
2022-11-26T04:23:28.409Z,3.51
2022-11-26T04:25:55.192Z,3.48
2022-11-26T04:28:21.776Z,3.54
2022-11-26T04:30:48.520Z,3.56
2022-11-26T04:33:15.285Z,3.53
2022-11-26T04:35:42.728Z,3.49
2022-11-26T04:38:09.467Z,3.48
2022-11-26T04:40:36.220Z,3.50
2022-11-26T04:43:02.938Z,3.44
2022-11-26T04:45:29.749Z,3.48
2022-11-26T04:47:56.327Z,3.52
2022-11-26T04:50:23.021Z,3.44
2022-11-26T04:52:49.571Z,3.47
2022-11-26T04:55:17.764Z,3.36
2022-11-26T04:57:44.726Z,3.41
2022-11-26T05:00:12.243Z,3.45
2022-11-26T05:02:39.020Z,3.40
2022-11-26T05:05:06.035Z,3.39
2022-11-26T05:07:32.922Z,3.47
2022-11-26T05:09:59.607Z,3.40
2022-11-26T05:12:26.799Z,3.35
2022-11-26T05:14:53.536Z,3.30
2022-11-26T05:17:20.093Z,3.25
2022-11-26T05:19:46.695Z,3.28
2022-11-26T05:22:13.338Z,3.29
2022-11-26T05:24:40.257Z,3.25
2022-11-26T05:27:07.206Z,3.22
2022-11-26T05:29:33.926Z,3.28
2022-11-26T05:32:00.695Z,3.10
2022-11-26T05:34:27.419Z,3.10
2022-11-26T05:36:54.097Z,3.18
2022-11-26T05:39:21.158Z,3.20
2022-11-26T05:41:48.205Z,3.14
2022-11-26T05:44:15.014Z,3.14
2022-11-26T05:46:43.034Z,3.16
2022-11-26T05:49:10.195Z,3.28
2022-11-26T05:51:36.844Z,3.25
2022-11-26T05:54:03.681Z,3.36
2022-11-26T05:56:30.204Z,3.43
2022-11-26T05:58:56.816Z,3.41
2022-11-26T06:01:23.515Z,3.47
2022-11-26T06:03:50.426Z,3.43
2022-11-26T06:06:17.090Z,3.38
2022-11-26T06:08:43.714Z,3.44
2022-11-26T06:11:13.570Z,3.43
2022-11-26T06:13:40.278Z,3.43
2022-11-26T06:16:07.585Z,3.53
2022-11-26T06:18:34.545Z,3.64
2022-11-26T06:21:02.525Z,3.57
2022-11-26T06:23:29.205Z,3.65
2022-11-26T06:25:55.783Z,3.69
2022-11-26T06:28:22.514Z,3.62
2022-11-26T06:30:49.184Z,3.67
2022-11-26T06:33:15.971Z,3.62
2022-11-26T06:35:42.690Z,3.62
2022-11-26T06:38:09.419Z,3.46
2022-11-26T06:40:36.133Z,3.47
2022-11-26T06:43:03.003Z,3.45
2022-11-26T06:45:29.978Z,3.48
2022-11-26T06:47:56.637Z,3.53
2022-11-26T06:50:23.639Z,3.61
2022-11-26T06:52:54.344Z,3.66
2022-11-26T06:55:21.119Z,3.55
2022-11-26T06:57:53.514Z,3.37
2022-11-26T07:00:20.391Z,3.39
2022-11-26T07:02:47.428Z,3.38
2022-11-26T07:05:14.055Z,3.38
2022-11-26T07:07:40.762Z,3.29
2022-11-26T07:10:08.267Z,3.33
2022-11-26T07:12:34.946Z,3.30
2022-11-26T07:15:01.734Z,3.31
2022-11-26T07:17:28.924Z,3.36
2022-11-26T07:19:55.596Z,3.38
2022-11-26T07:22:22.280Z,3.42
2022-11-26T07:24:48.960Z,3.47
2022-11-26T07:27:15.562Z,3.44
2022-11-26T07:29:42.336Z,3.45
2022-11-26T07:32:08.969Z,3.43
2022-11-26T07:34:35.826Z,3.43
2022-11-26T07:37:02.581Z,3.52
2022-11-26T07:39:29.831Z,3.55
2022-11-26T07:41:56.346Z,3.57
2022-11-26T07:44:22.994Z,3.51
2022-11-26T07:46:49.812Z,3.48
2022-11-26T07:49:16.462Z,3.55
2022-11-26T07:51:43.131Z,3.66
2022-11-26T07:54:10.259Z,3.66
2022-11-26T07:56:36.987Z,3.74
2022-11-26T07:59:04.143Z,3.81
2022-11-26T08:01:31.175Z,3.90
2022-11-26T08:04:00.408Z,3.99
2022-11-26T08:06:29.747Z,4.02
2022-11-26T08:08:58.839Z,4.22
2022-11-26T08:11:28.743Z,4.24
2022-11-26T08:13:58.831Z,4.37
2022-11-26T08:16:28.659Z,4.37
2022-11-26T08:18:57.107Z,4.56
2022-11-26T08:21:24.033Z,4.87
2022-11-26T08:23:51.519Z,4.98
2022-11-26T08:26:25.130Z,5.27
2022-11-26T08:28:59.363Z,5.55
2022-11-26T08:31:27.761Z,5.82
2022-11-26T08:33:59.518Z,6.03
2022-11-26T08:36:27.783Z,6.44
2022-11-26T08:38:55.048Z,7.69
2022-11-26T08:41:22.604Z,8.68
2022-11-26T08:44:06.109Z,9.19
2022-11-26T08:46:33.650Z,9.44
2022-11-26T08:49:00.515Z,9.62
2022-11-26T08:51:27.170Z,9.71
2022-11-26T08:53:53.841Z,9.89
2022-11-26T08:56:20.679Z,10.05
2022-11-26T08:58:48.909Z,10.25
2022-11-26T09:01:22.597Z,10.18
2022-11-26T09:03:53.574Z,10.26
2022-11-26T09:06:22.494Z,10.29
2022-11-26T09:09:07.708Z,10.31
2022-11-26T09:11:38.102Z,10.50
2022-11-26T09:14:05.203Z,10.65
2022-11-26T09:16:32.200Z,10.67
2022-11-26T09:19:03.897Z,10.76
2022-11-26T09:21:30.842Z,10.79
2022-11-26T09:23:57.375Z,10.64
2022-11-26T09:26:25.346Z,10.80
2022-11-26T09:28:52.035Z,10.90
2022-11-26T09:31:19.143Z,10.92
2022-11-26T09:33:45.871Z,10.95
2022-11-26T09:36:14.819Z,10.97
2022-11-26T09:38:41.733Z,10.95
2022-11-26T09:41:17.408Z,10.95
2022-11-26T09:44:02.463Z,10.94
2022-11-26T09:46:51.046Z,10.92
2022-11-26T09:49:30.398Z,10.93
2022-11-26T09:51:59.651Z,10.86
2022-11-26T09:54:29.749Z,11.00
2022-11-26T09:57:19.874Z,11.21
2022-11-26T09:59:49.866Z,11.31
2022-11-26T10:02:16.668Z,11.25
2022-11-26T10:04:43.749Z,11.16
2022-11-26T10:07:28.710Z,11.28
2022-11-26T10:10:04.189Z,11.27
2022-11-26T10:13:18.476Z,11.24
2022-11-26T10:16:23.338Z,11.13
2022-11-26T10:18:58.671Z,11.10
2022-11-26T10:21:58.562Z,11.14
2022-11-26T10:24:27.839Z,11.34
2022-11-26T10:26:55.989Z,11.43
2022-11-26T10:29:51.932Z,11.56
2022-11-26T10:32:23.268Z,11.64
2022-11-26T10:34:55.591Z,11.70
2022-11-26T10:37:24.615Z,11.68
2022-11-26T10:40:12.475Z,11.64
2022-11-26T10:42:42.476Z,11.64
2022-11-26T10:45:25.633Z,11.75
2022-11-26T10:47:52.399Z,11.84
2022-11-26T10:50:46.736Z,11.94
2022-11-26T10:53:21.695Z,11.98
2022-11-26T10:55:48.740Z,11.94
2022-11-26T10:58:19.478Z,12.00
2022-11-26T11:00:57.287Z,11.93
2022-11-26T11:04:06.054Z,12.01
2022-11-26T11:06:20.216Z,12.05
2022-11-26T11:08:49.440Z,12.11
2022-11-26T11:11:27.950Z,12.16
2022-11-26T11:13:55.616Z,12.30
2022-11-26T11:16:32.467Z,12.32
2022-11-26T11:19:02.816Z,12.37
2022-11-26T11:21:37.236Z,12.42
2022-11-26T11:24:17.741Z,12.48
2022-11-26T11:26:47.173Z,12.45
2022-11-26T11:29:28.034Z,12.48
2022-11-26T11:31:56.381Z,12.46
2022-11-26T11:34:29.507Z,12.54
2022-11-26T11:37:03.907Z,12.64
2022-11-26T11:39:33.186Z,12.66
2022-11-26T11:42:03.169Z,12.61
2022-11-26T11:44:44.539Z,12.73
2022-11-26T11:47:38.754Z,12.79
2022-11-26T11:50:29.310Z,12.82
2022-11-26T11:53:20.480Z,12.85
2022-11-26T11:56:03.454Z,12.85
2022-11-26T11:58:36.839Z,12.90
2022-11-26T12:01:21.553Z,13.00
2022-11-26T12:04:02.696Z,13.00
2022-11-26T12:06:54.529Z,13.01
2022-11-26T12:09:48.134Z,12.99
2022-11-26T12:12:14.909Z,12.96
2022-11-26T12:14:48.303Z,12.99
2022-11-26T12:17:32.941Z,12.99
2022-11-26T12:20:40.594Z,13.00
2022-11-26T12:23:25.468Z,12.95
2022-11-26T12:26:13.781Z,12.84
2022-11-26T12:28:51.497Z,12.80
2022-11-26T12:31:34.268Z,12.96
2022-11-26T12:34:30.209Z,13.01
2022-11-26T12:37:11.150Z,12.99
2022-11-26T12:39:56.719Z,13.04
2022-11-26T12:42:57.239Z,13.09
2022-11-26T12:46:01.048Z,13.12
2022-11-26T12:48:49.873Z,13.10
2022-11-26T12:51:49.938Z,13.12
2022-11-26T12:54:26.631Z,13.09
2022-11-26T12:56:53.285Z,13.08
2022-11-26T12:59:19.959Z,13.11
2022-11-26T13:01:46.775Z,13.08
2022-11-26T13:04:36.833Z,13.09
2022-11-26T13:07:19.056Z,13.09
2022-11-26T13:10:06.482Z,13.07
2022-11-26T13:12:59.093Z,13.15
2022-11-26T13:15:39.433Z,13.08
2022-11-26T13:18:32.257Z,13.09
2022-11-26T13:21:18.009Z,13.04
2022-11-26T13:23:52.555Z,13.08
2022-11-26T13:26:44.151Z,13.05
2022-11-26T13:29:35.661Z,13.03
2022-11-26T13:32:09.840Z,13.10
2022-11-26T13:34:54.174Z,13.14
2022-11-26T13:37:35.710Z,13.21
2022-11-26T13:40:42.601Z,13.46
2022-11-26T13:43:09.181Z,13.65
2022-11-26T13:45:41.693Z,13.67
2022-11-26T13:48:21.836Z,13.71
2022-11-26T13:51:25.043Z,13.65
2022-11-26T13:53:58.879Z,13.70
2022-11-26T13:56:32.258Z,13.71
2022-11-26T13:59:13.737Z,13.67
2022-11-26T14:01:40.936Z,13.70
2022-11-26T14:04:13.503Z,13.77
2022-11-26T14:07:03.489Z,13.65
2022-11-26T14:09:42.193Z,13.66
2022-11-26T14:12:10.279Z,13.49
2022-11-26T14:14:39.233Z,13.31
2022-11-26T14:17:08.988Z,13.24
2022-11-26T14:19:41.814Z,13.15
2022-11-26T14:22:11.459Z,13.11
2022-11-26T14:24:53.179Z,13.18
2022-11-26T14:27:28.871Z,13.25
2022-11-26T14:30:01.648Z,13.24
2022-11-26T14:32:34.751Z,13.17
2022-11-26T14:35:01.530Z,13.07
2022-11-26T14:37:31.434Z,13.08
2022-11-26T14:40:02.330Z,13.03
2022-11-26T14:42:29.600Z,13.07
2022-11-26T14:45:05.601Z,12.99
2022-11-26T14:47:33.539Z,12.86
2022-11-26T14:50:04.247Z,12.72
2022-11-26T14:52:35.677Z,12.65
2022-11-26T14:55:07.267Z,12.61
2022-11-26T14:57:43.285Z,12.49
2022-11-26T15:00:16.226Z,12.38
2022-11-26T15:02:48.688Z,12.35
2022-11-26T15:05:26.526Z,12.27
2022-11-26T15:07:59.196Z,12.14
2022-11-26T15:10:27.862Z,11.94
2022-11-26T15:12:58.209Z,11.96
2022-11-26T15:15:25.109Z,11.93
2022-11-26T15:17:56.038Z,11.87
2022-11-26T15:20:23.930Z,11.81
2022-11-26T15:22:53.658Z,11.71
2022-11-26T15:25:25.165Z,11.74
2022-11-26T15:27:56.440Z,11.82
2022-11-26T15:30:32.086Z,11.71
2022-11-26T15:33:09.031Z,11.54
2022-11-26T15:35:36.500Z,11.35
2022-11-26T15:38:13.127Z,11.15
2022-11-26T15:40:49.800Z,10.84
2022-11-26T15:43:28.428Z,10.74
2022-11-26T15:45:59.893Z,10.58
2022-11-26T15:48:53.227Z,10.55
2022-11-26T15:51:35.895Z,10.44
2022-11-26T15:54:21.619Z,10.31
2022-11-26T15:56:53.696Z,10.29
2022-11-26T15:59:21.002Z,10.28
2022-11-26T16:01:48.334Z,10.12
2022-11-26T16:04:53.256Z,10.04
2022-11-26T16:07:25.817Z,9.96
2022-11-26T16:10:12.186Z,9.86
2022-11-26T16:12:44.345Z,9.87
2022-11-26T16:15:17.936Z,9.88
2022-11-26T16:17:45.211Z,9.76
2022-11-26T16:20:21.822Z,9.65
2022-11-26T16:22:51.452Z,9.56
2022-11-26T16:25:20.857Z,9.26
2022-11-26T16:28:07.646Z,9.30
2022-11-26T16:30:34.985Z,9.30
2022-11-26T16:33:02.424Z,9.32
2022-11-26T16:35:45.114Z,9.27
2022-11-26T16:38:24.005Z,9.38
2022-11-26T16:40:51.254Z,9.25
2022-11-26T16:43:18.035Z,9.21
2022-11-26T16:45:45.523Z,9.15
2022-11-26T16:48:24.981Z,9.11
2022-11-26T16:50:53.335Z,8.96
2022-11-26T16:53:20.083Z,8.94
2022-11-26T16:55:47.313Z,8.86
2022-11-26T16:58:24.047Z,8.85
2022-11-26T17:00:51.222Z,8.86
2022-11-26T17:03:17.881Z,8.82
2022-11-26T17:05:44.667Z,8.78
2022-11-26T17:08:12.244Z,8.86
2022-11-26T17:10:39.459Z,8.84
2022-11-26T17:13:06.082Z,8.71
2022-11-26T17:15:33.051Z,8.64
2022-11-26T17:18:03.859Z,8.67
2022-11-26T17:20:30.986Z,8.54
2022-11-26T17:22:57.563Z,8.64
2022-11-26T17:25:25.413Z,8.47
2022-11-26T17:27:51.956Z,8.47
2022-11-26T17:30:23.856Z,8.39
2022-11-26T17:32:51.393Z,8.47
2022-11-26T17:35:18.476Z,8.36
2022-11-26T17:37:45.609Z,8.27
2022-11-26T17:40:20.887Z,8.19
2022-11-26T17:42:48.544Z,8.19
2022-11-26T17:45:15.854Z,8.26
2022-11-26T17:47:43.435Z,8.20
2022-11-26T17:50:25.094Z,8.06
2022-11-26T17:52:52.585Z,8.01
2022-11-26T17:55:20.109Z,8.03
2022-11-26T17:57:46.887Z,8.05
2022-11-26T18:00:20.289Z,8.05
2022-11-26T18:02:47.138Z,8.04
2022-11-26T18:05:14.620Z,8.04
2022-11-26T18:07:41.799Z,8.01
2022-11-26T18:10:13.887Z,7.96
2022-11-26T18:12:41.243Z,7.92
2022-11-26T18:15:08.412Z,7.92
2022-11-26T18:17:35.317Z,7.90
2022-11-26T18:20:01.929Z,7.95
2022-11-26T18:22:29.934Z,7.91
2022-11-26T18:24:57.663Z,7.93
2022-11-26T18:27:30.437Z,7.87
2022-11-26T18:29:57.213Z,7.63
2022-11-26T18:32:23.805Z,7.72
2022-11-26T18:34:50.704Z,7.64
2022-11-26T18:37:17.742Z,7.61
2022-11-26T18:39:44.452Z,7.59
2022-11-26T18:44:57.999Z,7.61
2022-11-26T18:47:24.665Z,7.61
2022-11-26T18:49:51.395Z,7.63
2022-11-26T18:52:18.049Z,7.57
2022-11-26T18:54:44.848Z,7.44
2022-11-26T18:57:11.526Z,7.44
2022-11-26T18:59:38.513Z,7.33
2022-11-26T19:02:05.668Z,7.29
2022-11-26T19:04:33.228Z,7.28
2022-11-26T19:07:00.085Z,7.28
2022-11-26T19:09:26.800Z,7.24
2022-11-26T19:11:54.433Z,7.27
2022-11-26T19:14:21.683Z,7.32
2022-11-26T19:16:50.412Z,7.29
2022-11-26T19:19:17.937Z,7.12
2022-11-26T19:21:44.713Z,7.08
2022-11-26T19:24:13.200Z,7.18
2022-11-26T19:26:42.924Z,7.20
2022-11-26T19:29:12.408Z,7.26
2022-11-26T19:31:39.951Z,7.18
2022-11-26T19:34:11.815Z,7.07
2022-11-26T19:36:38.669Z,7.05
2022-11-26T19:39:06.426Z,7.09
2022-11-26T19:41:33.730Z,6.99
2022-11-26T19:44:00.877Z,7.02
2022-11-26T19:46:28.214Z,6.96
2022-11-26T19:48:55.758Z,7.03
2022-11-26T19:51:24.540Z,7.10
2022-11-26T19:53:54.766Z,6.99
2022-11-26T19:56:25.164Z,6.94
2022-11-26T19:58:54.009Z,6.87
2022-11-26T20:01:21.942Z,6.96
2022-11-26T20:03:49.999Z,6.86
2022-11-26T20:06:22.892Z,6.84
2022-11-26T20:08:50.228Z,6.88
2022-11-26T20:11:17.883Z,6.79
2022-11-26T20:13:46.650Z,6.83
2022-11-26T20:16:19.207Z,6.85
2022-11-26T20:18:46.900Z,6.80
2022-11-26T20:21:16.993Z,6.72
2022-11-26T20:23:43.820Z,6.74
2022-11-26T20:26:19.798Z,6.68
2022-11-26T20:28:46.711Z,6.65
2022-11-26T20:31:16.367Z,6.56
2022-11-26T20:33:46.161Z,6.54
2022-11-26T20:36:15.639Z,6.56
2022-11-26T20:38:42.294Z,6.51
2022-11-26T20:41:11.873Z,6.48
2022-11-26T20:43:39.724Z,6.48
2022-11-26T20:46:07.773Z,6.37
2022-11-26T20:48:36.520Z,6.46
2022-11-26T20:51:07.199Z,6.41
2022-11-26T20:53:36.102Z,6.34
2022-11-26T20:56:03.454Z,6.34
2022-11-26T20:58:30.762Z,6.28
2022-11-26T21:00:57.988Z,6.27
2022-11-26T21:03:26.656Z,6.16
2022-11-26T21:05:53.581Z,6.22
2022-11-26T21:08:22.362Z,6.10
2022-11-26T21:10:50.283Z,6.18
2022-11-26T21:13:18.694Z,6.21
2022-11-26T21:15:49.130Z,6.26
2022-11-26T21:18:16.247Z,6.21
2022-11-26T21:20:44.380Z,6.20
2022-11-26T21:23:12.957Z,6.20
2022-11-26T21:25:42.109Z,6.11
2022-11-26T21:28:10.468Z,6.02
2022-11-26T21:30:38.008Z,6.13
2022-11-26T21:33:09.235Z,6.22
2022-11-26T21:35:37.646Z,6.16
2022-11-26T21:38:05.876Z,6.12
2022-11-26T21:40:33.028Z,5.93
2022-11-26T21:42:59.571Z,5.83
2022-11-26T21:45:27.858Z,5.96
2022-11-26T21:47:54.722Z,6.01
2022-11-26T21:50:21.644Z,6.02
2022-11-26T21:52:48.470Z,5.80
2022-11-26T21:55:15.222Z,5.78
2022-11-26T21:57:41.849Z,5.88
2022-11-26T22:00:09.292Z,5.80
2022-11-26T22:02:36.053Z,5.75
2022-11-26T22:05:02.963Z,5.77
2022-11-26T22:07:30.729Z,5.67
2022-11-26T22:09:57.613Z,5.78
2022-11-26T22:12:24.210Z,5.79
2022-11-26T22:14:50.856Z,5.74
2022-11-26T22:17:17.418Z,5.65
2022-11-26T22:19:44.015Z,5.58
2022-11-26T22:22:10.634Z,5.52
2022-11-26T22:24:37.340Z,5.64
2022-11-26T22:27:03.907Z,5.66
2022-11-26T22:29:30.783Z,5.76
2022-11-26T22:31:57.402Z,5.71
2022-11-26T22:34:24.967Z,5.68
2022-11-26T22:36:51.807Z,5.57
2022-11-26T22:39:19.972Z,5.55
2022-11-26T22:41:47.522Z,5.56
2022-11-26T22:44:15.739Z,5.59
2022-11-26T22:46:43.182Z,5.65
2022-11-26T22:49:15.995Z,5.60
2022-11-26T22:51:42.932Z,5.54
2022-11-26T22:54:12.054Z,5.43
2022-11-26T22:56:39.083Z,5.49
2022-11-26T22:59:07.473Z,5.42
2022-11-26T23:01:35.995Z,5.31
2022-11-26T23:04:05.400Z,5.54
2022-11-26T23:06:34.128Z,5.44
2022-11-26T23:09:03.304Z,5.33
2022-11-26T23:11:34.488Z,5.24
2022-11-26T23:14:07.070Z,5.29
2022-11-26T23:16:34.882Z,5.23
2022-11-26T23:19:02.347Z,5.26
2022-11-26T23:21:31.955Z,5.31
2022-11-26T23:23:58.698Z,5.34
2022-11-26T23:26:31.021Z,5.34
2022-11-26T23:28:59.828Z,5.30
2022-11-26T23:31:30.145Z,5.22
2022-11-26T23:33:57.115Z,5.22
2022-11-26T23:36:24.791Z,5.23
2022-11-26T23:38:51.600Z,5.24
2022-11-26T23:41:18.302Z,5.21
2022-11-26T23:43:45.940Z,5.21
2022-11-26T23:46:23.976Z,5.07
2022-11-26T23:48:51.133Z,5.06
2022-11-26T23:51:26.358Z,5.02
2022-11-26T23:53:53.797Z,5.05
2022-11-26T23:56:29.563Z,5.04
2022-11-26T23:58:58.727Z,5.05
